createdAt,value
2019-02-27T00:01:25.156Z,15.40
2019-02-27T00:03:55.459Z,18.40
2019-02-27T00:06:25.833Z,12.53
2019-02-27T00:08:57.837Z,13.73
2019-02-27T00:11:28.202Z,16.23
2019-02-27T00:13:58.574Z,20.27
2019-02-27T00:16:28.945Z,16.87
2019-02-27T00:18:59.398Z,10.67
2019-02-27T00:21:29.779Z,15.10
2019-02-27T00:24:00.086Z,19.60
2019-02-27T00:26:30.468Z,12.57
2019-02-27T00:29:00.781Z,11.50
2019-02-27T00:31:31.131Z,14.40
2019-02-27T00:34:01.434Z,19.63
2019-02-27T00:36:31.780Z,17.50
2019-02-27T00:39:02.073Z,14.20
2019-02-27T00:41:32.411Z,14.37
2019-02-27T00:44:02.723Z,14.43
2019-02-27T00:46:34.069Z,15.47
2019-02-27T00:49:04.361Z,14.53
2019-02-27T00:51:34.812Z,17.70
2019-02-27T00:54:05.115Z,13.53
2019-02-27T00:56:35.446Z,12.43
2019-02-27T00:59:05.749Z,19.77
2019-02-27T01:01:36.081Z,17.27
2019-02-27T01:04:06.350Z,16.27
2019-02-27T01:06:36.677Z,17.53
2019-02-27T01:09:07.636Z,18.53
2019-02-27T01:11:37.981Z,12.47
2019-02-27T01:14:08.286Z,13.17
2019-02-27T01:16:38.630Z,10.87
2019-02-27T01:19:08.919Z,14.40
2019-02-27T01:21:39.264Z,12.97
2019-02-27T01:24:09.501Z,14.57
2019-02-27T01:26:39.859Z,14.17
2019-02-27T01:29:10.162Z,16.43
2019-02-27T01:31:40.502Z,12.67
2019-02-27T01:34:11.339Z,13.23
2019-02-27T01:36:42.263Z,19.73
2019-02-27T01:39:12.568Z,12.10
2019-02-27T01:41:43.101Z,14.03
2019-02-27T01:44:14.233Z,15.80
2019-02-27T01:46:45.601Z,13.73
2019-02-27T01:49:16.746Z,12.03
2019-02-27T01:51:47.412Z,13.67
2019-02-27T01:54:17.716Z,11.40
2019-02-27T01:56:48.174Z,9.77
2019-02-27T01:59:18.468Z,11.27
2019-02-27T02:01:48.921Z,18.97
2019-02-27T02:04:20.317Z,15.40
2019-02-27T02:06:51.279Z,13.47
2019-02-27T02:09:38.234Z,11.83
2019-02-27T02:12:20.031Z,17.60
2019-02-27T02:15:08.437Z,18.13
2019-02-27T02:17:59.613Z,19.97
2019-02-27T02:20:50.781Z,15.73
2019-02-27T02:23:42.000Z,17.50
2019-02-27T02:26:48.386Z,16.50
2019-02-27T02:29:21.763Z,15.93
2019-02-27T02:32:00.810Z,20.03
2019-02-27T02:34:49.137Z,21.97
2019-02-27T02:37:48.138Z,18.17
2019-02-27T02:40:24.492Z,17.27
2019-02-27T02:43:18.718Z,15.90
2019-02-27T02:46:08.613Z,19.13
2019-02-27T02:49:06.281Z,18.87
2019-02-27T02:51:46.288Z,21.33
2019-02-27T02:54:28.639Z,20.57
2019-02-27T02:57:07.776Z,18.30
2019-02-27T02:59:59.444Z,20.10
2019-02-27T03:02:43.661Z,19.33
2019-02-27T03:05:48.531Z,14.20
2019-02-27T03:08:27.766Z,18.93
2019-02-27T03:11:19.015Z,19.30
2019-02-27T03:14:09.138Z,19.23
2019-02-27T03:16:45.248Z,17.53
2019-02-27T03:19:33.480Z,21.70
2019-02-27T03:22:09.520Z,21.37
2019-02-27T03:24:48.966Z,19.17
2019-02-27T03:27:50.900Z,21.83
2019-02-27T03:30:46.955Z,20.67
2019-02-27T03:33:27.214Z,21.63
2019-02-27T03:36:21.549Z,17.60
2019-02-27T03:39:17.515Z,19.27
2019-02-27T03:41:59.337Z,14.67
2019-02-27T03:44:40.846Z,15.03
2019-02-27T03:47:19.799Z,18.30
2019-02-27T03:49:56.878Z,18.33
2019-02-27T03:52:39.242Z,19.10
2019-02-27T03:55:35.143Z,16.47
2019-02-27T03:58:26.799Z,13.33
2019-02-27T04:01:30.027Z,14.93
2019-02-27T04:04:17.262Z,15.70
2019-02-27T04:07:12.845Z,16.10
2019-02-27T04:09:43.288Z,17.33
2019-02-27T04:12:16.607Z,11.10
2019-02-27T04:14:45.765Z,16.17
2019-02-27T04:17:16.181Z,13.57
2019-02-27T04:19:46.651Z,13.90
2019-02-27T04:22:17.169Z,12.93
2019-02-27T04:24:47.627Z,14.63
2019-02-27T04:27:21.184Z,18.03
2019-02-27T04:29:50.121Z,13.10
2019-02-27T04:32:20.528Z,15.77
2019-02-27T04:34:51.002Z,12.93
2019-02-27T04:37:21.378Z,15.03
2019-02-27T04:39:51.860Z,12.17
2019-02-27T04:42:25.369Z,16.67
2019-02-27T04:44:54.461Z,18.53
2019-02-27T04:47:28.656Z,13.17
2019-02-27T04:49:57.962Z,16.30
2019-02-27T04:52:28.350Z,15.60
2019-02-27T04:54:58.684Z,17.17
2019-02-27T04:57:30.787Z,17.33
2019-02-27T05:00:01.387Z,20.40
2019-02-27T05:02:31.744Z,17.70
2019-02-27T05:05:02.184Z,16.20
2019-02-27T05:07:32.610Z,16.37
2019-02-27T05:10:06.863Z,13.50
2019-02-27T05:12:35.188Z,15.57
2019-02-27T05:15:07.559Z,13.10
2019-02-27T05:17:37.963Z,12.83
2019-02-27T05:20:12.439Z,10.53
2019-02-27T05:22:41.373Z,9.37
2019-02-27T05:25:12.051Z,15.17
2019-02-27T05:27:43.785Z,13.93
2019-02-27T05:30:14.215Z,18.10
2019-02-27T05:32:44.557Z,11.70
2019-02-27T05:35:14.997Z,12.23
2019-02-27T05:37:45.406Z,13.37
2019-02-27T05:40:15.878Z,15.93
2019-02-27T05:42:46.284Z,12.13
2019-02-27T05:45:16.733Z,16.10
2019-02-27T05:47:47.070Z,13.70
2019-02-27T05:50:18.477Z,11.07
2019-02-27T05:52:49.682Z,9.37
2019-02-27T05:55:20.043Z,12.63
2019-02-27T05:57:50.642Z,10.37
2019-02-27T06:00:21.980Z,11.77
2019-02-27T06:02:52.358Z,16.60
2019-02-27T06:05:22.827Z,11.50
2019-02-27T06:07:53.238Z,11.43
2019-02-27T06:10:23.785Z,14.17
2019-02-27T06:12:54.282Z,14.37
2019-02-27T06:15:26.067Z,14.83
2019-02-27T06:17:56.820Z,13.37
2019-02-27T06:20:27.231Z,11.50
2019-02-27T06:22:57.687Z,13.90
2019-02-27T06:25:28.100Z,17.17
2019-02-27T06:27:58.567Z,15.17
2019-02-27T06:30:30.771Z,20.57
2019-02-27T06:33:01.125Z,18.17
2019-02-27T06:35:34.184Z,17.67
2019-02-27T06:38:03.715Z,15.87
2019-02-27T06:40:34.127Z,22.47
2019-02-27T06:43:04.581Z,20.00
2019-02-27T06:45:34.993Z,15.57
2019-02-27T06:48:09.438Z,16.73
2019-02-27T06:50:38.524Z,17.50
2019-02-27T06:53:09.045Z,18.13
2019-02-27T06:55:39.475Z,22.93
2019-02-27T06:58:14.452Z,19.97
2019-02-27T07:00:42.178Z,21.70
2019-02-27T07:03:12.649Z,20.13
2019-02-27T07:05:45.504Z,22.60
2019-02-27T07:08:15.263Z,20.47
2019-02-27T07:10:47.122Z,20.03
2019-02-27T07:13:17.578Z,20.53
2019-02-27T07:15:48.797Z,19.20
2019-02-27T07:18:21.167Z,20.73
2019-02-27T07:20:51.603Z,19.53
2019-02-27T07:23:23.695Z,15.57
2019-02-27T07:25:54.342Z,15.07
2019-02-27T07:28:27.917Z,10.27
2019-02-27T07:30:58.342Z,10.50
2019-02-27T07:33:28.820Z,11.23
2019-02-27T07:36:03.153Z,10.47
2019-02-27T07:38:32.965Z,11.90
2019-02-27T07:41:03.371Z,7.37
2019-02-27T07:43:33.709Z,11.33
2019-02-27T07:46:04.133Z,13.97
2019-02-27T07:48:34.576Z,9.77
2019-02-27T07:51:05.875Z,9.33
2019-02-27T07:53:37.786Z,6.20
2019-02-27T07:56:08.077Z,7.50
2019-02-27T07:58:38.512Z,7.93
2019-02-27T08:01:08.830Z,7.80
2019-02-27T08:03:39.130Z,6.77
2019-02-27T08:06:09.518Z,6.20
2019-02-27T08:08:39.867Z,8.40
2019-02-27T08:11:13.259Z,6.90
2019-02-27T08:13:42.603Z,6.73
2019-02-27T08:16:14.977Z,8.50
2019-02-27T08:18:45.380Z,9.37
2019-02-27T08:21:15.705Z,11.70
2019-02-27T08:23:46.399Z,13.60
2019-02-27T08:26:18.416Z,10.53
2019-02-27T08:28:49.024Z,9.97
2019-02-27T08:31:19.351Z,7.57
2019-02-27T08:33:49.730Z,7.53
2019-02-27T08:36:24.518Z,10.43
2019-02-27T08:38:54.993Z,11.37
2019-02-27T08:41:25.398Z,15.47
2019-02-27T08:43:55.897Z,12.47
2019-02-27T08:46:26.284Z,9.67
2019-02-27T08:48:56.661Z,11.33
2019-02-27T08:51:28.039Z,10.20
2019-02-27T08:53:59.907Z,11.00
2019-02-27T08:56:30.805Z,8.70
2019-02-27T08:59:04.985Z,9.60
2019-02-27T09:01:33.334Z,7.77
2019-02-27T09:04:06.102Z,8.50
2019-02-27T09:06:39.054Z,6.43
2019-02-27T09:09:09.492Z,10.10
2019-02-27T09:11:40.697Z,9.33
2019-02-27T09:14:12.027Z,9.90
2019-02-27T09:16:42.560Z,7.97
2019-02-27T09:21:43.510Z,9.53
2019-02-27T09:24:13.855Z,12.07
2019-02-27T09:26:45.749Z,7.87
2019-02-27T09:29:18.757Z,10.67
2019-02-27T09:31:50.990Z,7.17
2019-02-27T09:34:21.751Z,10.23
2019-02-27T09:36:52.199Z,7.03
2019-02-27T09:39:25.041Z,8.87
2019-02-27T09:41:55.374Z,14.20
2019-02-27T09:44:26.204Z,15.73
2019-02-27T09:46:56.616Z,12.53
2019-02-27T09:49:27.087Z,15.10
2019-02-27T09:51:57.673Z,17.30
2019-02-27T09:54:30.770Z,10.90
2019-02-27T09:57:02.853Z,10.53
2019-02-27T09:59:33.396Z,10.17
2019-02-27T10:02:06.345Z,13.57
2019-02-27T10:04:35.998Z,10.97
2019-02-27T10:07:06.418Z,15.90
2019-02-27T10:09:36.884Z,14.47
2019-02-27T10:12:07.291Z,19.77
2019-02-27T10:14:37.761Z,15.67
2019-02-27T10:17:09.199Z,13.10
2019-02-27T10:19:42.225Z,15.57
2019-02-27T10:22:13.581Z,17.53
2019-02-27T10:24:44.313Z,14.07
2019-02-27T10:27:14.845Z,15.47
2019-02-27T10:29:47.892Z,9.97
2019-02-27T10:32:18.332Z,9.87
2019-02-27T10:34:51.019Z,8.40
2019-02-27T10:37:20.892Z,11.83
2019-02-27T10:39:51.466Z,8.18
2019-02-27T10:42:21.796Z,9.97
2019-02-27T10:44:52.242Z,18.00
2019-02-27T10:47:27.245Z,11.33
2019-02-27T10:50:01.753Z,10.33
2019-02-27T10:52:32.865Z,13.70
2019-02-27T10:55:05.834Z,12.40
2019-02-27T10:57:38.569Z,11.40
2019-02-27T11:00:25.906Z,16.73
2019-02-27T11:02:56.651Z,8.77
2019-02-27T11:05:28.914Z,7.03
2019-02-27T11:07:59.344Z,14.60
2019-02-27T11:10:32.493Z,13.45
2019-02-27T11:13:06.877Z,18.47
2019-02-27T11:15:41.109Z,9.47
2019-02-27T11:18:09.745Z,11.20
2019-02-27T11:20:40.485Z,8.20
2019-02-27T11:23:10.829Z,11.13
2019-02-27T11:25:41.358Z,9.20
2019-02-27T11:28:11.675Z,8.53
2019-02-27T11:30:43.114Z,9.67
2019-02-27T11:33:24.828Z,9.13
2019-02-27T11:35:46.550Z,11.03
2019-02-27T11:38:16.990Z,10.00
2019-02-27T11:40:47.464Z,16.77
2019-02-27T11:43:17.875Z,12.93
2019-02-27T11:45:48.321Z,7.33
2019-02-27T11:48:20.370Z,12.17
2019-02-27T11:50:50.966Z,9.60
2019-02-27T11:53:22.350Z,11.80
2019-02-27T11:56:04.143Z,8.87
2019-02-27T11:58:45.544Z,13.43
2019-02-27T12:01:16.143Z,8.40
2019-02-27T12:03:46.588Z,8.03
2019-02-27T12:06:18.502Z,14.47
2019-02-27T12:08:49.014Z,7.63
2019-02-27T12:11:19.362Z,9.90
2019-02-27T12:17:13.386Z,11.57
2019-02-27T12:19:45.219Z,10.50
2019-02-27T12:22:19.190Z,10.00
2019-02-27T12:24:52.871Z,8.93
2019-02-27T12:27:47.435Z,12.73
2019-02-27T12:29:55.871Z,9.07
2019-02-27T12:32:26.253Z,7.83
2019-02-27T12:34:59.619Z,5.33
2019-02-27T12:37:34.062Z,11.33
2019-02-27T12:40:02.520Z,10.87
2019-02-27T12:42:37.292Z,12.77
2019-02-27T12:45:07.153Z,16.97
2019-02-27T12:47:40.611Z,19.03
2019-02-27T12:50:12.397Z,13.23
2019-02-27T12:52:47.937Z,12.43
2019-02-27T12:57:22.177Z,12.87
2019-02-27T12:59:54.778Z,12.07
2019-02-27T13:02:35.218Z,11.17
2019-02-27T13:04:57.974Z,8.67
2019-02-27T13:07:28.364Z,12.50
2019-02-27T13:09:59.437Z,17.87
2019-02-27T13:12:29.978Z,18.23
2019-02-27T13:15:00.507Z,12.50
2019-02-27T13:17:31.132Z,15.53
2019-02-27T13:20:11.708Z,18.43
2019-02-27T13:22:42.919Z,14.73
2019-02-27T13:25:15.182Z,11.47
2019-02-27T13:27:51.736Z,18.57
2019-02-27T13:30:31.069Z,15.77
2019-02-27T13:33:04.608Z,24.93
2019-02-27T13:35:35.074Z,13.17
2019-02-27T13:38:05.684Z,16.50
2019-02-27T13:40:36.367Z,13.47
2019-02-27T13:43:06.835Z,21.10
2019-02-27T13:45:39.995Z,17.80
2019-02-27T13:48:10.387Z,12.63
2019-02-27T13:50:40.815Z,10.03
2019-02-27T13:53:11.261Z,15.50
2019-02-27T13:55:41.709Z,14.63
2019-02-27T13:58:13.629Z,13.30
2019-02-27T14:00:44.285Z,15.13
2019-02-27T14:03:16.044Z,11.37
2019-02-27T14:05:46.559Z,9.70
2019-02-27T14:08:16.857Z,10.30
2019-02-27T14:10:47.314Z,10.97
2019-02-27T14:13:17.724Z,11.20
2019-02-27T14:15:48.942Z,12.37
2019-02-27T14:18:19.876Z,11.87
2019-02-27T14:20:50.396Z,9.40
2019-02-27T14:23:20.712Z,10.10
2019-02-27T14:25:51.738Z,11.03
2019-02-27T14:28:23.606Z,11.67
2019-02-27T14:30:57.068Z,12.77
2019-02-27T14:33:27.522Z,10.70
2019-02-27T14:35:57.949Z,13.53
2019-02-27T14:38:28.356Z,12.83
2019-02-27T14:41:14.358Z,11.93
2019-02-27T14:45:25.864Z,11.77
2019-02-27T14:47:56.337Z,13.27
2019-02-27T14:50:26.872Z,19.00
2019-02-27T14:52:57.493Z,17.67
2019-02-27T14:55:27.905Z,17.20
2019-02-27T14:57:58.408Z,13.23
2019-02-27T15:00:32.453Z,16.30
2019-02-27T15:03:04.491Z,19.07
2019-02-27T15:05:37.115Z,21.77
2019-02-27T15:08:09.731Z,23.20
2019-02-27T15:10:41.655Z,18.60
2019-02-27T15:13:12.364Z,21.15
2019-02-27T15:15:43.723Z,21.07
2019-02-27T15:18:15.846Z,20.37
2019-02-27T15:20:46.477Z,19.87
2019-02-27T15:23:17.099Z,26.07
2019-02-27T15:25:47.553Z,22.13
2019-02-27T15:28:18.242Z,19.00
2019-02-27T15:30:50.253Z,19.40
2019-02-27T15:33:26.660Z,20.88
2019-02-27T15:36:00.109Z,22.07
2019-02-27T15:38:31.571Z,21.27
2019-02-27T15:41:03.227Z,23.45
2019-02-27T15:43:45.247Z,20.23
2019-02-27T15:46:16.302Z,21.63
2019-02-27T15:48:46.830Z,22.03
2019-02-27T15:51:18.343Z,21.57
2019-02-27T15:53:50.167Z,21.70
2019-02-27T15:56:21.230Z,26.47
2019-02-27T15:58:51.678Z,20.60
2019-02-27T16:01:24.805Z,22.03
2019-02-27T16:03:55.214Z,22.27
2019-02-27T16:06:26.447Z,28.67
2019-02-27T16:08:58.316Z,34.03
